createdAt,value
2022-12-03T00:00:30.904Z,102131.16
2022-12-03T00:02:57.476Z,102129.78
2022-12-03T00:05:24.066Z,102134.72
2022-12-03T00:07:50.515Z,102122.75
2022-12-03T00:10:17.210Z,102121.72
2022-12-03T00:12:43.657Z,102119.75
2022-12-03T00:15:11.050Z,102118.81
2022-12-03T00:17:38.104Z,102118.88
2022-12-03T00:20:07.607Z,102121.34
2022-12-03T00:22:34.162Z,102111.44
2022-12-03T00:25:00.751Z,102108.66
2022-12-03T00:27:27.227Z,102121.72
2022-12-03T00:29:53.709Z,102108.88
2022-12-03T00:32:20.146Z,102104.31
2022-12-03T00:34:46.631Z,102109.94
2022-12-03T00:37:13.101Z,102115.84
2022-12-03T00:39:39.542Z,102109.25
2022-12-03T00:42:06.079Z,102108.56
2022-12-03T00:44:32.514Z,102101.28
2022-12-03T00:46:59.069Z,102093.63
2022-12-03T00:49:25.587Z,102104.47
2022-12-03T00:51:52.407Z,102098.81
2022-12-03T00:54:18.829Z,102092.84
2022-12-03T00:56:45.312Z,102099.84
2022-12-03T00:59:11.986Z,102088.91
2022-12-03T01:01:38.516Z,102093.69
2022-12-03T01:04:05.255Z,102089.16
2022-12-03T01:06:31.674Z,102091.75
2022-12-03T01:08:58.117Z,102086.56
2022-12-03T01:11:40.690Z,102086.16
2022-12-03T01:14:13.933Z,102087.16
2022-12-03T01:16:40.576Z,102087.34
2022-12-03T01:19:07.847Z,102088.34
2022-12-03T01:21:34.987Z,102089.78
2022-12-03T01:24:01.866Z,102082.44
2022-12-03T01:26:28.347Z,102086.84
2022-12-03T01:28:54.895Z,102082.88
2022-12-03T01:31:39.872Z,102092.84
2022-12-03T01:34:06.851Z,102086.91
2022-12-03T01:36:36.375Z,102083.81
2022-12-03T01:39:04.063Z,102084.00
2022-12-03T01:41:32.046Z,102078.72
2022-12-03T01:43:59.301Z,102067.81
2022-12-03T01:46:34.658Z,102068.91
2022-12-03T01:49:01.157Z,102073.28
2022-12-03T01:51:27.598Z,102071.00
2022-12-03T01:53:54.139Z,102067.59
2022-12-03T01:56:20.672Z,102076.91
2022-12-03T01:58:47.610Z,102068.63
2022-12-03T02:01:17.603Z,102068.03
2022-12-03T02:03:45.729Z,102064.44
2022-12-03T02:06:16.936Z,102075.81
2022-12-03T02:08:44.275Z,102076.94
2022-12-03T02:11:27.063Z,102076.94
2022-12-03T02:13:56.962Z,102072.75
2022-12-03T02:16:23.756Z,102074.41
2022-12-03T02:18:50.340Z,102073.31
2022-12-03T02:21:36.626Z,102074.38
2022-12-03T02:24:19.552Z,102068.75
2022-12-03T02:26:46.129Z,102073.31
2022-12-03T02:29:12.838Z,102069.16
2022-12-03T02:31:39.412Z,102070.50
2022-12-03T02:34:07.290Z,102068.03
2022-12-03T02:36:35.375Z,102058.94
2022-12-03T02:39:03.006Z,102069.47
2022-12-03T02:41:47.989Z,102065.78
2022-12-03T02:44:14.563Z,102064.94
2022-12-03T02:46:41.354Z,102066.50
2022-12-03T02:49:08.067Z,102059.28
2022-12-03T02:51:34.876Z,102064.44
2022-12-03T02:54:02.895Z,102061.63
2022-12-03T02:56:32.457Z,102063.59
2022-12-03T02:59:03.236Z,102060.19
2022-12-03T03:01:30.023Z,102063.75
2022-12-03T03:03:57.749Z,102060.84
2022-12-03T03:06:24.396Z,102067.28
2022-12-03T03:08:51.319Z,102064.00
2022-12-03T03:11:17.890Z,102061.88
2022-12-03T03:13:44.432Z,102056.53
2022-12-03T03:16:10.934Z,102059.56
2022-12-03T03:18:38.093Z,102060.44
2022-12-03T03:21:05.331Z,102059.53
2022-12-03T03:23:31.840Z,102058.56
2022-12-03T03:26:13.056Z,102048.91
2022-12-03T03:28:43.932Z,102050.63
2022-12-03T03:31:12.795Z,102048.34
2022-12-03T03:33:41.595Z,102051.41
2022-12-03T03:36:08.886Z,102048.03
2022-12-03T03:38:36.774Z,102047.72
2022-12-03T03:41:05.858Z,102044.66
2022-12-03T03:43:34.886Z,102045.69
2022-12-03T03:46:03.503Z,102038.28
2022-12-03T03:48:30.464Z,102040.47
2022-12-03T03:50:57.264Z,102038.84
2022-12-03T03:53:24.615Z,102031.38
2022-12-03T03:55:51.400Z,102028.75
2022-12-03T03:58:18.072Z,102034.50
2022-12-03T04:00:45.471Z,102025.16
2022-12-03T04:03:12.668Z,102029.41
2022-12-03T04:05:39.448Z,102023.72
2022-12-03T04:08:05.978Z,102031.72
2022-12-03T04:10:51.069Z,102017.56
2022-12-03T04:13:17.450Z,102023.88
2022-12-03T04:15:43.908Z,102014.63
2022-12-03T04:18:29.132Z,102019.38
2022-12-03T04:21:15.512Z,102018.41
2022-12-03T04:23:41.933Z,102019.81
2022-12-03T04:26:27.012Z,102018.22
2022-12-03T04:28:53.937Z,102014.09
2022-12-03T04:31:39.020Z,102014.59
2022-12-03T04:34:24.232Z,102007.81
2022-12-03T04:36:50.967Z,102017.94
2022-12-03T04:39:17.513Z,102013.22
2022-12-03T04:41:43.980Z,102008.28
2022-12-03T04:44:29.152Z,102008.75
2022-12-03T04:46:55.626Z,102006.03
2022-12-03T04:49:22.428Z,102008.09
2022-12-03T04:51:48.854Z,102016.09
2022-12-03T04:54:15.557Z,102009.94
2022-12-03T04:56:42.029Z,102008.25
2022-12-03T04:59:14.223Z,102009.19
2022-12-03T05:01:42.417Z,102007.72
2022-12-03T05:04:08.909Z,102001.19
2022-12-03T05:06:35.440Z,102011.44
2022-12-03T05:09:02.063Z,102019.16
2022-12-03T05:11:28.538Z,102014.16
2022-12-03T05:13:54.983Z,102020.88
2022-12-03T05:16:21.517Z,102006.22
2022-12-03T05:18:48.050Z,102012.16
2022-12-03T05:21:14.474Z,102009.06
2022-12-03T05:23:42.331Z,102016.81
2022-12-03T05:26:08.758Z,102009.94
2022-12-03T05:28:35.396Z,102019.75
2022-12-03T05:31:02.044Z,102008.56
2022-12-03T05:33:28.597Z,102007.78
2022-12-03T05:35:55.315Z,102007.94
2022-12-03T05:38:21.822Z,102006.47
2022-12-03T05:40:48.263Z,101999.47
2022-12-03T05:43:14.687Z,102000.25
2022-12-03T05:45:43.011Z,102000.13
2022-12-03T05:48:12.247Z,101992.41
2022-12-03T05:50:41.006Z,101996.25
2022-12-03T05:53:07.499Z,101996.09
2022-12-03T05:55:34.056Z,101990.63
2022-12-03T05:58:00.565Z,101997.38
2022-12-03T06:00:34.597Z,101990.88
2022-12-03T06:03:07.693Z,102000.81
2022-12-03T06:05:34.730Z,101988.78
2022-12-03T06:08:01.690Z,101995.44
2022-12-03T06:10:28.641Z,101984.81
2022-12-03T06:12:55.607Z,101999.03
2022-12-03T06:15:22.454Z,101983.25
2022-12-03T06:17:48.935Z,101976.56
2022-12-03T06:20:18.226Z,101979.59
2022-12-03T06:22:45.233Z,101981.38
2022-12-03T06:25:12.652Z,101979.50
2022-12-03T06:27:39.198Z,101976.84
2022-12-03T06:30:08.838Z,101977.41
2022-12-03T06:32:35.539Z,101981.59
2022-12-03T06:35:02.143Z,101976.91
2022-12-03T06:37:28.661Z,101962.63
2022-12-03T06:39:55.142Z,101967.97
2022-12-03T06:42:21.541Z,101957.88
2022-12-03T06:44:48.050Z,101967.53
2022-12-03T06:47:14.536Z,101970.66
2022-12-03T06:49:41.073Z,101969.25
2022-12-03T06:52:07.661Z,101967.22
2022-12-03T06:54:34.205Z,101974.06
2022-12-03T06:57:00.682Z,101965.72
2022-12-03T06:59:27.310Z,101962.38
2022-12-03T07:01:53.849Z,101969.66
2022-12-03T07:04:20.438Z,101974.13
2022-12-03T07:06:46.849Z,101976.44
2022-12-03T07:09:13.309Z,101974.03
2022-12-03T07:11:40.594Z,101976.63
2022-12-03T07:14:09.190Z,101980.16
2022-12-03T07:16:36.118Z,101973.72
2022-12-03T07:19:03.740Z,101976.69
2022-12-03T07:21:30.505Z,101969.91
2022-12-03T07:23:57.107Z,101976.66
2022-12-03T07:26:23.617Z,101981.06
2022-12-03T07:28:50.104Z,101978.31
2022-12-03T07:31:16.647Z,101971.78
2022-12-03T07:33:43.145Z,101974.88
2022-12-03T07:36:10.191Z,101975.56
2022-12-03T07:38:37.114Z,101980.72
2022-12-03T07:41:03.774Z,101979.88
2022-12-03T07:43:30.229Z,101976.00
2022-12-03T07:45:56.737Z,101978.50
2022-12-03T07:48:23.213Z,101975.81
2022-12-03T07:50:49.816Z,101986.91
2022-12-03T07:53:16.307Z,101986.53
2022-12-03T07:55:42.732Z,101990.47
2022-12-03T07:58:09.388Z,101995.56
2022-12-03T08:00:35.936Z,101986.84
2022-12-03T08:03:02.507Z,101989.34
2022-12-03T08:05:29.867Z,101988.38
2022-12-03T08:07:56.651Z,101984.47
2022-12-03T08:10:25.196Z,101982.69
2022-12-03T08:12:51.776Z,101983.97
2022-12-03T08:15:21.140Z,101983.25
2022-12-03T08:17:54.858Z,101984.25
2022-12-03T08:20:34.882Z,101975.03
2022-12-03T08:23:06.743Z,101975.19
2022-12-03T08:25:33.839Z,101974.88
2022-12-03T08:28:14.233Z,101966.16
2022-12-03T08:30:42.853Z,101978.69
2022-12-03T08:33:20.350Z,101976.22
2022-12-03T08:35:52.856Z,101972.63
2022-12-03T08:38:23.058Z,101979.81
2022-12-03T08:40:51.699Z,101976.47
2022-12-03T08:43:24.606Z,101974.22
2022-12-03T08:45:56.203Z,101970.50
2022-12-03T08:48:25.888Z,101965.97
2022-12-03T08:50:55.557Z,101974.72
2022-12-03T08:53:38.177Z,101972.19
2022-12-03T08:56:06.299Z,101974.22
2022-12-03T08:58:48.422Z,101974.31
2022-12-03T09:01:37.118Z,101970.88
2022-12-03T09:04:23.898Z,101974.59
2022-12-03T09:06:51.778Z,101969.50
2022-12-03T09:09:18.958Z,101971.53
2022-12-03T09:11:45.591Z,101970.50
2022-12-03T09:14:18.101Z,101972.31
2022-12-03T09:16:45.200Z,101971.72
2022-12-03T09:19:11.795Z,101965.25
2022-12-03T09:21:38.185Z,101959.44
2022-12-03T09:24:04.911Z,101960.53
2022-12-03T09:26:31.484Z,101958.63
2022-12-03T09:28:57.976Z,101955.56
2022-12-03T09:31:24.520Z,101955.06
2022-12-03T09:33:51.062Z,101956.44
2022-12-03T09:36:17.603Z,101963.41
2022-12-03T09:38:47.580Z,101950.00
2022-12-03T09:41:14.870Z,101962.72
2022-12-03T09:44:03.395Z,101965.34
2022-12-03T09:46:29.771Z,101956.16
2022-12-03T09:48:56.704Z,101966.53
2022-12-03T09:51:30.191Z,101959.00
2022-12-03T09:53:59.235Z,101954.47
2022-12-03T09:56:25.720Z,101962.69
2022-12-03T09:58:52.590Z,101958.91
2022-12-03T10:01:19.167Z,101953.56
2022-12-03T10:03:49.167Z,101951.19
2022-12-03T10:06:21.236Z,101952.53
2022-12-03T10:08:50.988Z,101956.75
2022-12-03T10:11:20.212Z,101953.38
2022-12-03T10:13:47.500Z,101951.84
2022-12-03T10:16:18.227Z,101954.81
2022-12-03T10:18:48.616Z,101956.03
2022-12-03T10:21:19.281Z,101957.53
2022-12-03T10:23:48.474Z,101956.63
2022-12-03T10:26:18.744Z,101944.09
2022-12-03T10:28:47.470Z,101944.22
2022-12-03T10:31:14.779Z,101940.94
2022-12-03T10:33:44.869Z,101936.28
2022-12-03T10:36:14.028Z,101939.75
2022-12-03T10:38:40.640Z,101930.72
2022-12-03T10:41:28.088Z,101932.19
2022-12-03T10:43:54.586Z,101927.84
2022-12-03T10:46:22.475Z,101921.75
2022-12-03T10:49:09.296Z,101925.47
2022-12-03T10:51:37.949Z,101918.72
2022-12-03T10:54:14.418Z,101912.88
2022-12-03T10:56:40.974Z,101908.84
2022-12-03T10:59:15.747Z,101910.28
2022-12-03T11:01:42.281Z,101905.06
2022-12-03T11:04:18.931Z,101900.31
2022-12-03T11:06:45.429Z,101904.22
2022-12-03T11:09:19.814Z,101896.47
2022-12-03T11:11:46.532Z,101899.72
2022-12-03T11:14:15.771Z,101896.59
2022-12-03T11:16:46.356Z,101895.00
2022-12-03T11:19:12.813Z,101887.50
2022-12-03T11:22:07.091Z,101883.72
2022-12-03T11:24:36.482Z,101880.09
2022-12-03T11:27:03.046Z,101881.06
2022-12-03T11:29:46.776Z,101878.47
2022-12-03T11:32:37.885Z,101878.97
2022-12-03T11:35:11.655Z,101871.31
2022-12-03T11:37:38.502Z,101876.34
2022-12-03T11:40:26.632Z,101872.66
2022-12-03T11:42:53.083Z,101867.97
2022-12-03T11:45:30.420Z,101860.69
2022-12-03T11:47:59.950Z,101859.13
2022-12-03T11:50:37.562Z,101864.94
2022-12-03T11:53:23.584Z,101856.38
2022-12-03T11:56:06.596Z,101859.75
2022-12-03T11:58:34.572Z,101854.91
2022-12-03T12:01:03.693Z,101850.28
2022-12-03T12:03:41.708Z,101851.31
2022-12-03T12:06:10.795Z,101846.91
2022-12-03T12:08:41.044Z,101844.56
2022-12-03T12:11:18.755Z,101841.22
2022-12-03T12:13:45.155Z,101840.56
2022-12-03T12:16:11.845Z,101843.47
2022-12-03T12:18:38.310Z,101837.44
2022-12-03T12:21:41.105Z,101830.78
2022-12-03T12:24:29.668Z,101828.41
2022-12-03T12:26:58.329Z,101826.53
2022-12-03T12:29:25.206Z,101826.28
2022-12-03T12:31:57.640Z,101816.16
2022-12-03T12:34:25.431Z,101816.16
2022-12-03T12:36:54.537Z,101807.06
2022-12-03T12:39:21.089Z,101804.72
2022-12-03T12:41:49.271Z,101808.56
2022-12-03T12:44:15.858Z,101803.59
2022-12-03T12:46:48.814Z,101794.94
2022-12-03T12:49:15.831Z,101800.84
2022-12-03T12:51:46.947Z,101793.47
2022-12-03T12:54:15.844Z,101800.94
2022-12-03T12:56:49.806Z,101802.91
2022-12-03T12:59:21.477Z,101800.31
2022-12-03T13:01:49.904Z,101803.69
2022-12-03T13:04:21.628Z,101793.19
2022-12-03T13:06:51.764Z,101802.03
2022-12-03T13:09:24.272Z,101797.66
2022-12-03T13:11:54.464Z,101799.50
2022-12-03T13:14:26.683Z,101801.47
2022-12-03T13:16:56.398Z,101786.56
2022-12-03T13:19:28.287Z,101792.00
2022-12-03T13:21:57.204Z,101783.31
2022-12-03T13:24:38.705Z,101782.53
2022-12-03T13:27:17.489Z,101791.66
2022-12-03T13:29:59.167Z,101789.66
2022-12-03T13:32:34.760Z,101781.16
2022-12-03T13:35:11.357Z,101776.00
2022-12-03T13:37:38.500Z,101774.09
2022-12-03T13:40:31.194Z,101775.22
2022-12-03T13:42:58.775Z,101770.66
2022-12-03T13:45:45.040Z,101781.94
2022-12-03T13:48:35.618Z,101769.56
2022-12-03T13:51:19.199Z,101764.31
2022-12-03T13:53:45.713Z,101762.34
2022-12-03T13:56:32.368Z,101762.94
2022-12-03T13:59:01.184Z,101759.56
2022-12-03T14:01:28.510Z,101760.09
2022-12-03T14:03:55.358Z,101757.22
2022-12-03T14:06:22.017Z,101757.00
2022-12-03T14:08:48.784Z,101757.19
2022-12-03T14:11:33.658Z,101752.56
2022-12-03T14:14:00.867Z,101741.78
2022-12-03T14:16:27.390Z,101748.72
2022-12-03T14:18:53.918Z,101743.41
2022-12-03T14:21:20.364Z,101746.22
2022-12-03T14:23:46.853Z,101748.81
2022-12-03T14:26:13.334Z,101740.91
2022-12-03T14:28:39.868Z,101747.00
2022-12-03T14:31:06.418Z,101744.00
2022-12-03T14:33:32.909Z,101747.22
2022-12-03T14:35:59.362Z,101746.34
2022-12-03T14:38:25.763Z,101747.69
2022-12-03T14:40:52.206Z,101748.72
2022-12-03T14:43:18.670Z,101743.25
2022-12-03T14:45:45.237Z,101746.78
2022-12-03T14:48:11.736Z,101749.78
2022-12-03T14:50:38.227Z,101750.72
2022-12-03T14:53:04.635Z,101754.75
2022-12-03T14:55:31.128Z,101749.50
2022-12-03T14:57:57.738Z,101755.78
2022-12-03T15:00:24.388Z,101750.94
2022-12-03T15:02:50.837Z,101750.88
2022-12-03T15:05:18.131Z,101756.63
2022-12-03T15:07:46.572Z,101751.28
2022-12-03T15:10:13.065Z,101748.13
2022-12-03T15:12:39.626Z,101741.53
2022-12-03T15:15:06.769Z,101743.75
2022-12-03T15:17:33.241Z,101744.69
2022-12-03T15:19:59.831Z,101737.03
2022-12-03T15:22:26.291Z,101746.69
2022-12-03T15:24:52.815Z,101748.94
2022-12-03T15:27:19.586Z,101747.09
2022-12-03T15:29:46.047Z,101751.38
2022-12-03T15:32:12.512Z,101751.66
2022-12-03T15:34:38.984Z,101758.91
2022-12-03T15:37:05.497Z,101750.06
2022-12-03T15:39:32.932Z,101744.91
2022-12-03T15:41:59.402Z,101743.38
2022-12-03T15:44:25.847Z,101753.34
2022-12-03T15:46:52.350Z,101756.25
2022-12-03T15:49:18.935Z,101751.84
2022-12-03T15:51:45.355Z,101759.88
2022-12-03T15:54:12.537Z,101749.88
2022-12-03T15:56:39.084Z,101760.16
2022-12-03T15:59:05.521Z,101759.38
2022-12-03T16:01:32.133Z,101751.38
2022-12-03T16:03:58.705Z,101749.63
2022-12-03T16:06:25.202Z,101751.81
2022-12-03T16:08:51.651Z,101745.97
2022-12-03T16:11:18.110Z,101754.75
2022-12-03T16:13:44.697Z,101752.56
2022-12-03T16:16:11.211Z,101753.44
2022-12-03T16:18:37.763Z,101754.16
2022-12-03T16:21:04.362Z,101749.00
2022-12-03T16:23:30.789Z,101753.44
2022-12-03T16:25:57.221Z,101750.53
2022-12-03T16:28:23.689Z,101753.88
2022-12-03T16:30:50.260Z,101749.81
2022-12-03T16:33:17.736Z,101746.13
2022-12-03T16:35:46.559Z,101745.31
2022-12-03T16:38:13.056Z,101740.97
2022-12-03T16:40:39.466Z,101733.00
2022-12-03T16:43:07.040Z,101741.94
2022-12-03T16:45:50.898Z,101736.00
2022-12-03T16:48:18.294Z,101729.47
2022-12-03T16:50:44.832Z,101717.97
2022-12-03T16:53:11.921Z,101730.03
2022-12-03T16:55:38.538Z,101728.91
2022-12-03T16:58:05.075Z,101724.19
2022-12-03T17:00:31.506Z,101727.50
2022-12-03T17:02:58.369Z,101724.28
2022-12-03T17:05:25.045Z,101720.72
2022-12-03T17:07:51.550Z,101724.06
2022-12-03T17:10:18.277Z,101719.66
2022-12-03T17:13:11.300Z,101717.09
2022-12-03T17:15:31.907Z,101723.81
2022-12-03T17:17:58.889Z,101723.50
2022-12-03T17:20:25.585Z,101725.75
2022-12-03T17:22:51.991Z,101718.25
2022-12-03T17:25:18.451Z,101718.63
2022-12-03T17:27:45.514Z,101724.44
2022-12-03T17:30:13.507Z,101727.97
2022-12-03T17:32:40.347Z,101726.25
2022-12-03T17:35:07.716Z,101714.56
2022-12-03T17:37:34.801Z,101710.50
2022-12-03T17:40:01.503Z,101721.00
2022-12-03T17:42:28.015Z,101716.16
2022-12-03T17:44:54.416Z,101717.56
2022-12-03T17:47:20.896Z,101714.75
2022-12-03T17:49:47.719Z,101719.22
2022-12-03T17:52:14.185Z,101717.91
2022-12-03T17:55:08.406Z,101724.03
2022-12-03T17:57:27.088Z,101711.84
2022-12-03T17:59:53.772Z,101709.09
2022-12-03T18:02:20.446Z,101711.72
2022-12-03T18:04:46.893Z,101709.44
2022-12-03T18:07:13.409Z,101709.53
2022-12-03T18:09:39.879Z,101711.22
2022-12-03T18:12:06.717Z,101716.63
2022-12-03T18:14:33.266Z,101714.38
2022-12-03T18:16:59.693Z,101705.22
2022-12-03T18:19:26.324Z,101711.91
2022-12-03T18:21:53.958Z,101697.66
2022-12-03T18:24:20.744Z,101706.78
2022-12-03T18:26:47.192Z,101711.72
2022-12-03T18:29:13.697Z,101705.31
2022-12-03T18:31:40.329Z,101708.19
2022-12-03T18:34:06.774Z,101701.56
2022-12-03T18:36:36.302Z,101699.59
2022-12-03T18:39:05.997Z,101705.09
2022-12-03T18:41:33.431Z,101700.25
2022-12-03T18:44:03.413Z,101702.28
2022-12-03T18:46:53.356Z,101695.91
2022-12-03T18:49:16.517Z,101693.50
2022-12-03T18:51:43.024Z,101690.88
2022-12-03T18:54:13.375Z,101699.25
2022-12-03T18:56:41.010Z,101695.00
2022-12-03T18:59:07.754Z,101690.25
2022-12-03T19:01:34.816Z,101696.72
2022-12-03T19:04:01.581Z,101695.03
2022-12-03T19:06:30.758Z,101700.38
2022-12-03T19:08:57.766Z,101688.38
2022-12-03T19:11:24.729Z,101693.44
2022-12-03T19:13:51.932Z,101694.81
2022-12-03T19:16:19.011Z,101692.91
2022-12-03T19:18:48.596Z,101695.53
2022-12-03T19:21:16.956Z,101682.09
2022-12-03T19:24:04.265Z,101688.56
2022-12-03T19:26:30.624Z,101683.81
2022-12-03T19:28:57.198Z,101685.41
2022-12-03T19:31:23.802Z,101689.91
2022-12-03T19:33:51.744Z,101694.63
2022-12-03T19:36:23.801Z,101690.06
2022-12-03T19:38:56.694Z,101692.31
2022-12-03T19:41:26.614Z,101685.03
2022-12-03T19:43:54.669Z,101671.38
2022-12-03T19:46:23.776Z,101686.84
2022-12-03T19:48:50.403Z,101692.13
2022-12-03T19:51:33.470Z,101680.84
2022-12-03T19:54:01.721Z,101682.09
2022-12-03T19:56:30.224Z,101680.59
2022-12-03T19:58:56.870Z,101679.69
2022-12-03T20:01:29.024Z,101680.97
2022-12-03T20:03:57.475Z,101679.16
2022-12-03T20:06:27.222Z,101675.72
2022-12-03T20:08:57.769Z,101677.38
2022-12-03T20:11:27.217Z,101670.56
2022-12-03T20:13:58.951Z,101674.56
2022-12-03T20:16:27.066Z,101672.56
2022-12-03T20:18:57.574Z,101673.19
2022-12-03T20:21:24.658Z,101671.59
2022-12-03T20:23:51.230Z,101670.66
2022-12-03T20:26:19.540Z,101676.66
2022-12-03T20:28:47.987Z,101674.50
2022-12-03T20:31:19.891Z,101666.72
2022-12-03T20:33:49.510Z,101662.88
2022-12-03T20:36:20.975Z,101664.50
2022-12-03T20:38:47.519Z,101666.84
2022-12-03T20:41:18.412Z,101656.00
2022-12-03T20:43:45.858Z,101656.63
2022-12-03T20:46:27.426Z,101660.69
2022-12-03T20:48:55.174Z,101660.44
2022-12-03T20:51:24.421Z,101661.63
2022-12-03T20:53:51.323Z,101650.28
2022-12-03T20:56:21.488Z,101657.38
2022-12-03T20:58:49.011Z,101649.59
2022-12-03T21:01:18.993Z,101652.09
2022-12-03T21:03:46.541Z,101657.09
2022-12-03T21:06:13.568Z,101655.50
2022-12-03T21:08:42.460Z,101651.31
2022-12-03T21:11:11.657Z,101652.66
2022-12-03T21:13:41.292Z,101654.13
2022-12-03T21:16:10.113Z,101649.38
2022-12-03T21:18:36.901Z,101643.63
2022-12-03T21:21:03.731Z,101646.88
2022-12-03T21:23:31.445Z,101645.44
2022-12-03T21:26:15.787Z,101635.88
2022-12-03T21:28:44.305Z,101642.94
2022-12-03T21:31:13.904Z,101641.56
2022-12-03T21:33:40.900Z,101639.09
2022-12-03T21:36:08.225Z,101634.91
2022-12-03T21:38:35.532Z,101629.34
2022-12-03T21:41:02.294Z,101636.22
2022-12-03T21:43:29.268Z,101637.28
2022-12-03T21:45:55.803Z,101634.03
2022-12-03T21:48:22.519Z,101637.78
2022-12-03T21:51:18.640Z,101636.31
2022-12-03T21:53:46.132Z,101637.78
2022-12-03T21:56:15.231Z,101632.56
2022-12-03T21:58:42.724Z,101639.25
2022-12-03T22:01:13.502Z,101634.97
2022-12-03T22:03:40.452Z,101636.72
2022-12-03T22:06:07.199Z,101636.19
2022-12-03T22:08:33.679Z,101637.03
2022-12-03T22:11:04.604Z,101634.09
2022-12-03T22:13:31.152Z,101635.88
2022-12-03T22:15:57.657Z,101636.56
2022-12-03T22:18:24.171Z,101640.28
2022-12-03T22:20:51.217Z,101641.56
2022-12-03T22:23:17.740Z,101633.75
2022-12-03T22:25:44.156Z,101632.81
2022-12-03T22:28:10.621Z,101628.25
2022-12-03T22:30:39.598Z,101625.59
2022-12-03T22:33:06.085Z,101625.00
2022-12-03T22:35:32.537Z,101626.13
2022-12-03T22:37:58.914Z,101622.69
2022-12-03T22:40:25.456Z,101622.69
2022-12-03T22:42:51.975Z,101616.34
2022-12-03T22:45:18.458Z,101612.59
2022-12-03T22:47:44.877Z,101613.78
2022-12-03T22:50:11.548Z,101620.75
2022-12-03T22:52:38.014Z,101608.63
2022-12-03T22:55:04.831Z,101613.03
2022-12-03T22:57:31.733Z,101619.22
2022-12-03T22:59:58.210Z,101617.94
2022-12-03T23:02:24.702Z,101619.00
2022-12-03T23:04:51.225Z,101615.47
2022-12-03T23:07:17.719Z,101603.03
2022-12-03T23:09:44.207Z,101607.25
2022-12-03T23:12:10.643Z,101609.72
2022-12-03T23:14:37.210Z,101600.91
2022-12-03T23:17:04.658Z,101604.03
2022-12-03T23:19:31.108Z,101604.31
2022-12-03T23:21:58.136Z,101603.41
2022-12-03T23:24:24.708Z,101600.63
2022-12-03T23:26:51.201Z,101601.50
2022-12-03T23:29:17.690Z,101603.97
2022-12-03T23:31:44.235Z,101605.19
2022-12-03T23:34:10.820Z,101599.88
2022-12-03T23:36:37.563Z,101602.59
2022-12-03T23:39:04.188Z,101604.38
2022-12-03T23:41:30.624Z,101606.88
2022-12-03T23:43:57.374Z,101603.75
2022-12-03T23:46:27.248Z,101609.28
2022-12-03T23:48:53.903Z,101606.81
2022-12-03T23:51:24.928Z,101604.75
2022-12-03T23:53:53.064Z,101604.75
2022-12-03T23:56:24.119Z,101604.50
2022-12-03T23:58:50.632Z,101605.09
